sensor_id;sensor_type;location;lat;lon;timestamp;temperature;humidity
40828;DHT22;26549;50.918;5.338;2023-04-24T00:01:53;11.50;99.90
40828;DHT22;26549;50.918;5.338;2023-04-24T00:04:26;11.50;99.90
40828;DHT22;26549;50.918;5.338;2023-04-24T00:06:55;11.50;99.90
40828;DHT22;26549;50.918;5.338;2023-04-24T00:09:48;11.50;99.90
40828;DHT22;26549;50.918;5.338;2023-04-24T00:12:15;11.40;99.90
40828;DHT22;26549;50.918;5.338;2023-04-24T00:14:48;11.40;99.90
40828;DHT22;26549;50.918;5.338;2023-04-24T00:17:14;11.40;99.90
40828;DHT22;26549;50.918;5.338;2023-04-24T00:19:40;11.50;99.90
40828;DHT22;26549;50.918;5.338;2023-04-24T00:22:07;11.50;99.90
40828;DHT22;26549;50.918;5.338;2023-04-24T00:24:36;11.40;99.90
40828;DHT22;26549;50.918;5.338;2023-04-24T00:27:04;11.50;99.90
40828;DHT22;26549;50.918;5.338;2023-04-24T00:29:33;11.50;99.90
40828;DHT22;26549;50.918;5.338;2023-04-24T00:32:08;11.40;99.90
40828;DHT22;26549;50.918;5.338;2023-04-24T00:35:02;11.40;99.90
40828;DHT22;26549;50.918;5.338;2023-04-24T00:38:02;11.30;99.90
40828;DHT22;26549;50.918;5.338;2023-04-24T00:40:41;11.30;99.90
40828;DHT22;26549;50.918;5.338;2023-04-24T00:43:28;11.40;99.90
40828;DHT22;26549;50.918;5.338;2023-04-24T00:45:54;11.30;99.90
40828;DHT22;26549;50.918;5.338;2023-04-24T00:48:21;11.30;99.90
40828;DHT22;26549;50.918;5.338;2023-04-24T00:50:47;11.30;99.90
40828;DHT22;26549;50.918;5.338;2023-04-24T00:53:15;11.30;99.90
40828;DHT22;26549;50.918;5.338;2023-04-24T00:55:50;11.40;99.90
40828;DHT22;26549;50.918;5.338;2023-04-24T00:58:39;11.20;99.90
40828;DHT22;26549;50.918;5.338;2023-04-24T01:01:07;11.40;99.90
40828;DHT22;26549;50.918;5.338;2023-04-24T01:03:35;11.40;99.90
40828;DHT22;26549;50.918;5.338;2023-04-24T01:06:34;11.40;99.90
40828;DHT22;26549;50.918;5.338;2023-04-24T01:09:03;11.30;99.90
40828;DHT22;26549;50.918;5.338;2023-04-24T01:11:30;11.40;99.90
40828;DHT22;26549;50.918;5.338;2023-04-24T01:13:56;11.40;99.90
40828;DHT22;26549;50.918;5.338;2023-04-24T01:16:25;11.30;99.90
40828;DHT22;26549;50.918;5.338;2023-04-24T01:18:51;11.40;99.90
40828;DHT22;26549;50.918;5.338;2023-04-24T01:21:37;11.40;99.90
40828;DHT22;26549;50.918;5.338;2023-04-24T01:24:21;11.30;99.90
40828;DHT22;26549;50.918;5.338;2023-04-24T01:26:55;11.40;99.90
40828;DHT22;26549;50.918;5.338;2023-04-24T01:29:37;11.40;99.90
40828;DHT22;26549;50.918;5.338;2023-04-24T01:32:12;11.30;99.90
40828;DHT22;26549;50.918;5.338;2023-04-24T01:35:21;11.30;99.90
40828;DHT22;26549;50.918;5.338;2023-04-24T01:37:47;11.30;99.90
40828;DHT22;26549;50.918;5.338;2023-04-24T01:40:13;11.20;99.90
40828;DHT22;26549;50.918;5.338;2023-04-24T01:42:41;11.20;99.90
40828;DHT22;26549;50.918;5.338;2023-04-24T01:45:27;11.20;99.90
40828;DHT22;26549;50.918;5.338;2023-04-24T01:47:53;11.10;99.90
40828;DHT22;26549;50.918;5.338;2023-04-24T01:50:19;11.20;99.90
40828;DHT22;26549;50.918;5.338;2023-04-24T01:52:44;11.20;99.90
40828;DHT22;26549;50.918;5.338;2023-04-24T01:55:29;11.20;99.90
40828;DHT22;26549;50.918;5.338;2023-04-24T01:58:02;11.30;99.90
40828;DHT22;26549;50.918;5.338;2023-04-24T02:00:37;11.20;99.90
40828;DHT22;26549;50.918;5.338;2023-04-24T02:03:03;11.20;99.90
40828;DHT22;26549;50.918;5.338;2023-04-24T02:05:29;11.20;99.90
40828;DHT22;26549;50.918;5.338;2023-04-24T02:07:57;11.20;99.90
40828;DHT22;26549;50.918;5.338;2023-04-24T02:10:24;11.20;99.90
40828;DHT22;26549;50.918;5.338;2023-04-24T02:12:57;11.20;99.90
40828;DHT22;26549;50.918;5.338;2023-04-24T02:15:27;11.20;99.90
40828;DHT22;26549;50.918;5.338;2023-04-24T02:17:57;11.20;99.90
40828;DHT22;26549;50.918;5.338;2023-04-24T02:20:23;11.20;99.90
40828;DHT22;26549;50.918;5.338;2023-04-24T02:22:50;11.00;99.90
40828;DHT22;26549;50.918;5.338;2023-04-24T02:25:26;10.90;99.90
40828;DHT22;26549;50.918;5.338;2023-04-24T02:27:52;10.90;99.90
40828;DHT22;26549;50.918;5.338;2023-04-24T02:30:39;11.00;99.90
40828;DHT22;26549;50.918;5.338;2023-04-24T02:33:09;10.90;99.90
40828;DHT22;26549;50.918;5.338;2023-04-24T02:35:37;11.00;99.90
40828;DHT22;26549;50.918;5.338;2023-04-24T02:38:04;10.80;99.90
40828;DHT22;26549;50.918;5.338;2023-04-24T02:40:44;10.80;99.90
40828;DHT22;26549;50.918;5.338;2023-04-24T02:43:20;10.80;99.90
40828;DHT22;26549;50.918;5.338;2023-04-24T02:45:58;10.90;99.90
40828;DHT22;26549;50.918;5.338;2023-04-24T02:48:34;10.90;99.90
40828;DHT22;26549;50.918;5.338;2023-04-24T02:51:17;10.80;99.90
40828;DHT22;26549;50.918;5.338;2023-04-24T02:53:46;10.60;99.90
40828;DHT22;26549;50.918;5.338;2023-04-24T02:56:12;10.60;99.90
40828;DHT22;26549;50.918;5.338;2023-04-24T02:58:38;10.70;99.90
40828;DHT22;26549;50.918;5.338;2023-04-24T03:01:04;10.70;99.90
40828;DHT22;26549;50.918;5.338;2023-04-24T03:03:30;10.80;99.90
40828;DHT22;26549;50.918;5.338;2023-04-24T03:05:56;10.70;99.90
40828;DHT22;26549;50.918;5.338;2023-04-24T03:08:22;10.60;99.90
40828;DHT22;26549;50.918;5.338;2023-04-24T03:10:51;10.60;99.90
40828;DHT22;26549;50.918;5.338;2023-04-24T03:13:17;10.50;99.90
40828;DHT22;26549;50.918;5.338;2023-04-24T03:15:50;10.50;99.90
40828;DHT22;26549;50.918;5.338;2023-04-24T03:18:36;10.50;99.90
40828;DHT22;26549;50.918;5.338;2023-04-24T03:21:02;10.60;99.90
40828;DHT22;26549;50.918;5.338;2023-04-24T03:23:28;10.50;99.90
40828;DHT22;26549;50.918;5.338;2023-04-24T03:26:10;10.50;99.90
40828;DHT22;26549;50.918;5.338;2023-04-24T03:28:54;10.40;99.90
40828;DHT22;26549;50.918;5.338;2023-04-24T03:31:27;10.60;99.90
40828;DHT22;26549;50.918;5.338;2023-04-24T03:34:04;10.50;99.90
40828;DHT22;26549;50.918;5.338;2023-04-24T03:36:29;10.60;99.90
40828;DHT22;26549;50.918;5.338;2023-04-24T03:38:56;10.60;99.90
40828;DHT22;26549;50.918;5.338;2023-04-24T03:41:22;10.40;99.90
40828;DHT22;26549;50.918;5.338;2023-04-24T03:44:08;10.50;99.90
40828;DHT22;26549;50.918;5.338;2023-04-24T03:46:44;10.50;99.90
40828;DHT22;26549;50.918;5.338;2023-04-24T03:49:19;10.50;99.90
40828;DHT22;26549;50.918;5.338;2023-04-24T03:51:48;10.50;99.90
40828;DHT22;26549;50.918;5.338;2023-04-24T03:54:14;10.50;99.90
40828;DHT22;26549;50.918;5.338;2023-04-24T03:56:39;10.50;99.90
40828;DHT22;26549;50.918;5.338;2023-04-24T03:59:05;10.50;99.90
40828;DHT22;26549;50.918;5.338;2023-04-24T04:01:49;10.60;99.90
40828;DHT22;26549;50.918;5.338;2023-04-24T04:04:17;10.30;99.90
40828;DHT22;26549;50.918;5.338;2023-04-24T04:06:43;10.30;99.90
40828;DHT22;26549;50.918;5.338;2023-04-24T04:09:19;10.40;99.90
40828;DHT22;26549;50.918;5.338;2023-04-24T04:11:55;10.50;99.90
40828;DHT22;26549;50.918;5.338;2023-04-24T04:17:31;10.40;99.90
40828;DHT22;26549;50.918;5.338;2023-04-24T04:20:17;10.50;99.90
40828;DHT22;26549;50.918;5.338;2023-04-24T04:22:45;10.50;99.90
40828;DHT22;26549;50.918;5.338;2023-04-24T04:25:29;10.30;99.90
40828;DHT22;26549;50.918;5.338;2023-04-24T04:28:02;10.30;99.90
40828;DHT22;26549;50.918;5.338;2023-04-24T04:30:28;10.40;99.90
40828;DHT22;26549;50.918;5.338;2023-04-24T04:32:59;10.40;99.90
40828;DHT22;26549;50.918;5.338;2023-04-24T04:35:25;10.30;99.90
40828;DHT22;26549;50.918;5.338;2023-04-24T04:37:50;10.30;99.90
40828;DHT22;26549;50.918;5.338;2023-04-24T04:40:17;10.20;99.90
40828;DHT22;26549;50.918;5.338;2023-04-24T04:42:42;10.10;99.90
40828;DHT22;26549;50.918;5.338;2023-04-24T04:45:11;10.10;99.90
40828;DHT22;26549;50.918;5.338;2023-04-24T04:47:37;10.10;99.90
40828;DHT22;26549;50.918;5.338;2023-04-24T04:50:04;10.10;99.90
40828;DHT22;26549;50.918;5.338;2023-04-24T04:52:31;10.20;99.90
40828;DHT22;26549;50.918;5.338;2023-04-24T04:54:57;10.20;99.90
40828;DHT22;26549;50.918;5.338;2023-04-24T04:57:23;10.10;99.90
40828;DHT22;26549;50.918;5.338;2023-04-24T04:59:49;10.10;99.90
40828;DHT22;26549;50.918;5.338;2023-04-24T05:02:15;10.10;99.90
40828;DHT22;26549;50.918;5.338;2023-04-24T05:04:41;10.20;99.90
40828;DHT22;26549;50.918;5.338;2023-04-24T05:07:06;10.20;99.90
40828;DHT22;26549;50.918;5.338;2023-04-24T05:09:32;10.10;99.90
40828;DHT22;26549;50.918;5.338;2023-04-24T05:11:58;10.00;99.90
40828;DHT22;26549;50.918;5.338;2023-04-24T05:14:24;10.10;99.90
40828;DHT22;26549;50.918;5.338;2023-04-24T05:16:50;10.10;99.90
40828;DHT22;26549;50.918;5.338;2023-04-24T05:19:17;10.20;99.90
40828;DHT22;26549;50.918;5.338;2023-04-24T05:21:45;10.30;99.90
40828;DHT22;26549;50.918;5.338;2023-04-24T05:24:14;10.20;99.90
40828;DHT22;26549;50.918;5.338;2023-04-24T05:26:40;10.30;99.90
40828;DHT22;26549;50.918;5.338;2023-04-24T05:29:07;10.30;99.90
40828;DHT22;26549;50.918;5.338;2023-04-24T05:31:34;10.30;99.90
40828;DHT22;26549;50.918;5.338;2023-04-24T05:34:03;10.20;99.90
40828;DHT22;26549;50.918;5.338;2023-04-24T05:36:29;10.20;99.90
40828;DHT22;26549;50.918;5.338;2023-04-24T05:38:54;10.20;99.90
40828;DHT22;26549;50.918;5.338;2023-04-24T05:41:20;10.00;99.90
40828;DHT22;26549;50.918;5.338;2023-04-24T05:43:48;10.10;99.90
40828;DHT22;26549;50.918;5.338;2023-04-24T05:46:15;10.20;99.90
40828;DHT22;26549;50.918;5.338;2023-04-24T05:48:41;10.30;99.90
40828;DHT22;26549;50.918;5.338;2023-04-24T05:51:07;10.30;99.90
40828;DHT22;26549;50.918;5.338;2023-04-24T05:53:32;10.30;99.90
40828;DHT22;26549;50.918;5.338;2023-04-24T05:55:58;10.20;99.90
40828;DHT22;26549;50.918;5.338;2023-04-24T05:58:25;10.10;99.90
40828;DHT22;26549;50.918;5.338;2023-04-24T06:00:51;10.20;99.90
40828;DHT22;26549;50.918;5.338;2023-04-24T06:03:16;10.20;99.90
40828;DHT22;26549;50.918;5.338;2023-04-24T06:05:43;10.20;99.90
40828;DHT22;26549;50.918;5.338;2023-04-24T06:08:11;10.30;99.90
40828;DHT22;26549;50.918;5.338;2023-04-24T06:10:38;10.20;99.90
40828;DHT22;26549;50.918;5.338;2023-04-24T06:13:06;10.20;99.90
40828;DHT22;26549;50.918;5.338;2023-04-24T06:15:33;10.10;99.90
40828;DHT22;26549;50.918;5.338;2023-04-24T06:17:59;10.00;99.90
40828;DHT22;26549;50.918;5.338;2023-04-24T06:20:25;9.90;99.90
40828;DHT22;26549;50.918;5.338;2023-04-24T06:22:51;10.00;99.90
40828;DHT22;26549;50.918;5.338;2023-04-24T06:25:17;10.20;99.90
40828;DHT22;26549;50.918;5.338;2023-04-24T06:27:43;10.20;99.90
40828;DHT22;26549;50.918;5.338;2023-04-24T06:30:09;10.20;99.90
40828;DHT22;26549;50.918;5.338;2023-04-24T06:32:34;10.30;99.90
40828;DHT22;26549;50.918;5.338;2023-04-24T06:35:01;10.40;99.90
40828;DHT22;26549;50.918;5.338;2023-04-24T06:37:27;10.30;99.90
40828;DHT22;26549;50.918;5.338;2023-04-24T06:39:53;10.00;99.90
40828;DHT22;26549;50.918;5.338;2023-04-24T06:42:20;10.20;99.90
40828;DHT22;26549;50.918;5.338;2023-04-24T06:44:51;10.00;99.90
40828;DHT22;26549;50.918;5.338;2023-04-24T06:47:18;10.00;99.90
40828;DHT22;26549;50.918;5.338;2023-04-24T06:49:45;10.20;99.90
40828;DHT22;26549;50.918;5.338;2023-04-24T06:52:11;10.20;99.90
40828;DHT22;26549;50.918;5.338;2023-04-24T06:54:37;9.90;99.90
40828;DHT22;26549;50.918;5.338;2023-04-24T06:57:04;10.00;99.90
40828;DHT22;26549;50.918;5.338;2023-04-24T06:59:29;10.10;99.90
40828;DHT22;26549;50.918;5.338;2023-04-24T07:01:58;10.00;99.90
40828;DHT22;26549;50.918;5.338;2023-04-24T07:04:27;10.10;99.90
40828;DHT22;26549;50.918;5.338;2023-04-24T07:06:53;10.20;99.90
40828;DHT22;26549;50.918;5.338;2023-04-24T07:09:25;10.10;99.90
40828;DHT22;26549;50.918;5.338;2023-04-24T07:11:52;10.20;99.90
40828;DHT22;26549;50.918;5.338;2023-04-24T07:14:20;10.00;99.90
40828;DHT22;26549;50.918;5.338;2023-04-24T07:16:46;9.90;99.90
40828;DHT22;26549;50.918;5.338;2023-04-24T07:19:14;10.10;99.90
40828;DHT22;26549;50.918;5.338;2023-04-24T07:21:40;10.20;99.90
40828;DHT22;26549;50.918;5.338;2023-04-24T07:24:06;10.20;99.90
40828;DHT22;26549;50.918;5.338;2023-04-24T07:26:36;10.20;99.90
40828;DHT22;26549;50.918;5.338;2023-04-24T07:29:03;10.20;99.90
40828;DHT22;26549;50.918;5.338;2023-04-24T07:31:29;10.30;99.90
40828;DHT22;26549;50.918;5.338;2023-04-24T07:33:55;10.40;99.90
40828;DHT22;26549;50.918;5.338;2023-04-24T07:36:23;10.30;99.90
40828;DHT22;26549;50.918;5.338;2023-04-24T07:38:49;10.20;99.90
40828;DHT22;26549;50.918;5.338;2023-04-24T07:41:15;10.20;99.90
40828;DHT22;26549;50.918;5.338;2023-04-24T07:43:42;10.30;99.90
40828;DHT22;26549;50.918;5.338;2023-04-24T07:46:08;10.50;99.90
40828;DHT22;26549;50.918;5.338;2023-04-24T07:48:35;10.40;99.90
40828;DHT22;26549;50.918;5.338;2023-04-24T07:51:01;10.40;99.90
40828;DHT22;26549;50.918;5.338;2023-04-24T07:53:26;10.30;99.90
40828;DHT22;26549;50.918;5.338;2023-04-24T07:55:56;10.40;99.90
40828;DHT22;26549;50.918;5.338;2023-04-24T07:58:23;10.40;99.90
40828;DHT22;26549;50.918;5.338;2023-04-24T08:00:49;10.50;99.90
40828;DHT22;26549;50.918;5.338;2023-04-24T08:03:15;10.30;99.90
40828;DHT22;26549;50.918;5.338;2023-04-24T08:05:45;10.20;99.90
40828;DHT22;26549;50.918;5.338;2023-04-24T08:08:11;10.20;99.90
40828;DHT22;26549;50.918;5.338;2023-04-24T08:10:37;10.20;99.90
40828;DHT22;26549;50.918;5.338;2023-04-24T08:13:02;10.10;99.90
40828;DHT22;26549;50.918;5.338;2023-04-24T08:15:28;10.10;99.90
40828;DHT22;26549;50.918;5.338;2023-04-24T08:17:54;10.10;99.90
40828;DHT22;26549;50.918;5.338;2023-04-24T08:20:20;10.30;99.90
40828;DHT22;26549;50.918;5.338;2023-04-24T08:22:46;10.40;99.90
40828;DHT22;26549;50.918;5.338;2023-04-24T08:25:14;10.50;99.90
40828;DHT22;26549;50.918;5.338;2023-04-24T08:27:41;10.40;99.90
40828;DHT22;26549;50.918;5.338;2023-04-24T08:30:07;10.30;99.90
40828;DHT22;26549;50.918;5.338;2023-04-24T08:32:34;10.40;99.90
40828;DHT22;26549;50.918;5.338;2023-04-24T08:34:59;10.50;99.90
40828;DHT22;26549;50.918;5.338;2023-04-24T08:37:27;10.70;99.90
40828;DHT22;26549;50.918;5.338;2023-04-24T08:39:54;10.80;99.90
40828;DHT22;26549;50.918;5.338;2023-04-24T08:42:21;10.80;99.90
40828;DHT22;26549;50.918;5.338;2023-04-24T08:44:49;10.80;99.90
40828;DHT22;26549;50.918;5.338;2023-04-24T08:47:18;10.90;99.90
40828;DHT22;26549;50.918;5.338;2023-04-24T08:49:44;10.90;99.90
40828;DHT22;26549;50.918;5.338;2023-04-24T08:52:14;11.00;99.90
40828;DHT22;26549;50.918;5.338;2023-04-24T08:54:42;11.10;99.90
40828;DHT22;26549;50.918;5.338;2023-04-24T08:57:09;11.10;99.90
40828;DHT22;26549;50.918;5.338;2023-04-24T08:59:38;11.20;99.90
40828;DHT22;26549;50.918;5.338;2023-04-24T09:02:05;11.20;99.90
40828;DHT22;26549;50.918;5.338;2023-04-24T09:04:33;11.20;99.90
40828;DHT22;26549;50.918;5.338;2023-04-24T09:06:59;11.00;99.90
40828;DHT22;26549;50.918;5.338;2023-04-24T09:09:26;10.70;99.90
40828;DHT22;26549;50.918;5.338;2023-04-24T09:11:56;10.70;99.90
40828;DHT22;26549;50.918;5.338;2023-04-24T09:14:23;10.70;99.90
40828;DHT22;26549;50.918;5.338;2023-04-24T09:16:49;10.80;99.90
40828;DHT22;26549;50.918;5.338;2023-04-24T09:19:16;10.80;99.90
40828;DHT22;26549;50.918;5.338;2023-04-24T09:21:45;10.80;99.90
40828;DHT22;26549;50.918;5.338;2023-04-24T09:24:19;11.00;99.90
40828;DHT22;26549;50.918;5.338;2023-04-24T09:26:55;11.20;99.90
40828;DHT22;26549;50.918;5.338;2023-04-24T09:29:22;11.10;99.90
40828;DHT22;26549;50.918;5.338;2023-04-24T09:31:48;11.30;99.90
40828;DHT22;26549;50.918;5.338;2023-04-24T09:34:14;11.40;99.90
40828;DHT22;26549;50.918;5.338;2023-04-24T09:36:44;11.50;99.90
40828;DHT22;26549;50.918;5.338;2023-04-24T09:39:14;11.60;99.90
40828;DHT22;26549;50.918;5.338;2023-04-24T09:41:56;11.90;99.90
40828;DHT22;26549;50.918;5.338;2023-04-24T09:44:27;12.00;99.90
40828;DHT22;26549;50.918;5.338;2023-04-24T09:46:58;12.00;99.90
40828;DHT22;26549;50.918;5.338;2023-04-24T09:49:26;12.00;99.90
40828;DHT22;26549;50.918;5.338;2023-04-24T09:52:03;12.20;99.90
40828;DHT22;26549;50.918;5.338;2023-04-24T09:54:29;12.30;99.90
40828;DHT22;26549;50.918;5.338;2023-04-24T09:56:55;12.20;99.90
40828;DHT22;26549;50.918;5.338;2023-04-24T09:59:22;12.30;99.90
40828;DHT22;26549;50.918;5.338;2023-04-24T10:01:49;12.40;99.90
40828;DHT22;26549;50.918;5.338;2023-04-24T10:04:16;12.40;99.90
40828;DHT22;26549;50.918;5.338;2023-04-24T10:06:43;12.50;99.90
40828;DHT22;26549;50.918;5.338;2023-04-24T10:09:10;12.60;99.90
40828;DHT22;26549;50.918;5.338;2023-04-24T10:11:42;12.70;99.90
40828;DHT22;26549;50.918;5.338;2023-04-24T10:14:15;12.80;99.90
40828;DHT22;26549;50.918;5.338;2023-04-24T10:16:44;12.60;99.90
40828;DHT22;26549;50.918;5.338;2023-04-24T10:19:14;12.60;99.90
40828;DHT22;26549;50.918;5.338;2023-04-24T10:21:43;12.80;99.90
40828;DHT22;26549;50.918;5.338;2023-04-24T10:24:14;13.00;99.90
40828;DHT22;26549;50.918;5.338;2023-04-24T10:26:42;12.90;99.90
40828;DHT22;26549;50.918;5.338;2023-04-24T10:29:12;12.70;99.90
40828;DHT22;26549;50.918;5.338;2023-04-24T10:31:39;12.50;99.90
40828;DHT22;26549;50.918;5.338;2023-04-24T10:34:09;12.50;99.90
40828;DHT22;26549;50.918;5.338;2023-04-24T10:36:41;12.70;99.90
40828;DHT22;26549;50.918;5.338;2023-04-24T10:39:12;12.80;99.90
40828;DHT22;26549;50.918;5.338;2023-04-24T10:41:40;12.90;99.90
40828;DHT22;26549;50.918;5.338;2023-04-24T10:44:11;13.10;99.90
40828;DHT22;26549;50.918;5.338;2023-04-24T10:46:38;13.00;99.90
40828;DHT22;26549;50.918;5.338;2023-04-24T10:49:07;12.80;99.90
40828;DHT22;26549;50.918;5.338;2023-04-24T10:51:51;12.80;99.90
40828;DHT22;26549;50.918;5.338;2023-04-24T10:54:33;12.90;99.90
40828;DHT22;26549;50.918;5.338;2023-04-24T10:59:51;12.90;99.90
40828;DHT22;26549;50.918;5.338;2023-04-24T11:02:18;12.90;99.90
40828;DHT22;26549;50.918;5.338;2023-04-24T11:04:45;12.60;99.90
40828;DHT22;26549;50.918;5.338;2023-04-24T11:07:12;12.70;99.90
40828;DHT22;26549;50.918;5.338;2023-04-24T11:09:38;12.80;99.90
40828;DHT22;26549;50.918;5.338;2023-04-24T11:12:10;12.90;99.90
40828;DHT22;26549;50.918;5.338;2023-04-24T11:17:33;12.90;99.90
40828;DHT22;26549;50.918;5.338;2023-04-24T11:20:11;13.00;99.90
40828;DHT22;26549;50.918;5.338;2023-04-24T11:22:39;13.10;99.90
40828;DHT22;26549;50.918;5.338;2023-04-24T11:25:08;13.00;99.90
40828;DHT22;26549;50.918;5.338;2023-04-24T11:27:45;12.80;99.90
40828;DHT22;26549;50.918;5.338;2023-04-24T11:30:18;12.90;99.90
40828;DHT22;26549;50.918;5.338;2023-04-24T11:32:50;12.70;99.90
40828;DHT22;26549;50.918;5.338;2023-04-24T11:35:18;12.80;99.90
40828;DHT22;26549;50.918;5.338;2023-04-24T11:37:48;12.80;99.90
40828;DHT22;26549;50.918;5.338;2023-04-24T11:40:16;12.90;99.90
40828;DHT22;26549;50.918;5.338;2023-04-24T11:42:48;12.80;99.90
40828;DHT22;26549;50.918;5.338;2023-04-24T11:47:42;13.10;99.90
40828;DHT22;26549;50.918;5.338;2023-04-24T11:50:14;13.30;99.90
40828;DHT22;26549;50.918;5.338;2023-04-24T11:52:41;13.20;99.90
40828;DHT22;26549;50.918;5.338;2023-04-24T11:55:23;13.20;99.90
40828;DHT22;26549;50.918;5.338;2023-04-24T11:57:57;13.40;99.90
40828;DHT22;26549;50.918;5.338;2023-04-24T12:00:27;13.40;99.90
40828;DHT22;26549;50.918;5.338;2023-04-24T12:03:07;13.40;99.90
40828;DHT22;26549;50.918;5.338;2023-04-24T12:05:33;13.40;99.90
40828;DHT22;26549;50.918;5.338;2023-04-24T12:08:00;13.50;99.90
40828;DHT22;26549;50.918;5.338;2023-04-24T12:10:28;13.60;99.90
40828;DHT22;26549;50.918;5.338;2023-04-24T12:12:56;13.80;99.90
40828;DHT22;26549;50.918;5.338;2023-04-24T12:15:22;13.90;99.90
40828;DHT22;26549;50.918;5.338;2023-04-24T12:17:51;14.10;99.90
40828;DHT22;26549;50.918;5.338;2023-04-24T12:20:17;14.10;99.90
40828;DHT22;26549;50.918;5.338;2023-04-24T12:25:12;13.70;99.60
40828;DHT22;26549;50.918;5.338;2023-04-24T12:27:38;13.40;99.90
40828;DHT22;26549;50.918;5.338;2023-04-24T12:30:05;13.50;99.90
40828;DHT22;26549;50.918;5.338;2023-04-24T12:32:31;13.40;99.90
40828;DHT22;26549;50.918;5.338;2023-04-24T12:34:58;13.50;99.90
40828;DHT22;26549;50.918;5.338;2023-04-24T12:37:25;13.60;99.90
40828;DHT22;26549;50.918;5.338;2023-04-24T12:42:34;13.70;99.90
40828;DHT22;26549;50.918;5.338;2023-04-24T12:45:05;13.80;99.90
40828;DHT22;26549;50.918;5.338;2023-04-24T12:47:33;13.90;99.80
40828;DHT22;26549;50.918;5.338;2023-04-24T12:50:00;13.80;99.90
40828;DHT22;26549;50.918;5.338;2023-04-24T12:52:28;14.10;98.80
40828;DHT22;26549;50.918;5.338;2023-04-24T12:54:58;14.10;98.50
40828;DHT22;26549;50.918;5.338;2023-04-24T12:57:27;14.20;98.30
40828;DHT22;26549;50.918;5.338;2023-04-24T12:59:57;13.90;98.90
40828;DHT22;26549;50.918;5.338;2023-04-24T13:02:30;13.80;99.80
40828;DHT22;26549;50.918;5.338;2023-04-24T13:04:59;13.90;99.90
40828;DHT22;26549;50.918;5.338;2023-04-24T13:07:27;13.80;99.90
40828;DHT22;26549;50.918;5.338;2023-04-24T13:09:55;13.70;99.90
40828;DHT22;26549;50.918;5.338;2023-04-24T13:12:23;14.00;99.90
40828;DHT22;26549;50.918;5.338;2023-04-24T13:14:52;14.10;99.90
40828;DHT22;26549;50.918;5.338;2023-04-24T13:17:18;14.20;99.90
40828;DHT22;26549;50.918;5.338;2023-04-24T13:19:44;14.30;99.90
40828;DHT22;26549;50.918;5.338;2023-04-24T13:22:11;14.30;99.90
40828;DHT22;26549;50.918;5.338;2023-04-24T13:24:37;14.60;99.90
40828;DHT22;26549;50.918;5.338;2023-04-24T13:27:05;14.50;99.90
40828;DHT22;26549;50.918;5.338;2023-04-24T13:29:32;14.50;99.30
40828;DHT22;26549;50.918;5.338;2023-04-24T13:31:58;14.40;99.50
40828;DHT22;26549;50.918;5.338;2023-04-24T13:34:25;14.20;99.90
40828;DHT22;26549;50.918;5.338;2023-04-24T13:36:53;14.20;99.80
40828;DHT22;26549;50.918;5.338;2023-04-24T13:39:19;14.30;99.90
40828;DHT22;26549;50.918;5.338;2023-04-24T13:41:45;14.40;99.90
40828;DHT22;26549;50.918;5.338;2023-04-24T13:44:17;14.60;99.90
40828;DHT22;26549;50.918;5.338;2023-04-24T13:46:44;14.50;99.30
40828;DHT22;26549;50.918;5.338;2023-04-24T13:49:11;14.70;99.10
40828;DHT22;26549;50.918;5.338;2023-04-24T13:51:37;14.80;99.20
40828;DHT22;26549;50.918;5.338;2023-04-24T13:54:06;14.80;99.10
40828;DHT22;26549;50.918;5.338;2023-04-24T13:56:33;14.70;98.50
40828;DHT22;26549;50.918;5.338;2023-04-24T13:58:59;14.80;98.90
40828;DHT22;26549;50.918;5.338;2023-04-24T14:01:26;14.70;98.80
40828;DHT22;26549;50.918;5.338;2023-04-24T14:03:53;14.60;99.00
40828;DHT22;26549;50.918;5.338;2023-04-24T14:06:19;14.50;98.70
40828;DHT22;26549;50.918;5.338;2023-04-24T14:08:46;14.50;98.20
40828;DHT22;26549;50.918;5.338;2023-04-24T14:11:12;14.50;98.70
40828;DHT22;26549;50.918;5.338;2023-04-24T14:13:41;14.50;98.90
40828;DHT22;26549;50.918;5.338;2023-04-24T14:16:07;14.50;98.80
40828;DHT22;26549;50.918;5.338;2023-04-24T14:18:33;14.40;98.80
40828;DHT22;26549;50.918;5.338;2023-04-24T14:20:59;14.50;98.40
40828;DHT22;26549;50.918;5.338;2023-04-24T14:23:27;14.60;97.90
40828;DHT22;26549;50.918;5.338;2023-04-24T14:25:52;14.70;99.10
40828;DHT22;26549;50.918;5.338;2023-04-24T14:28:19;14.90;98.30
40828;DHT22;26549;50.918;5.338;2023-04-24T14:30:46;15.20;97.80
40828;DHT22;26549;50.918;5.338;2023-04-24T14:33:12;15.10;98.60
40828;DHT22;26549;50.918;5.338;2023-04-24T14:35:39;15.20;97.40
40828;DHT22;26549;50.918;5.338;2023-04-24T14:38:05;15.10;97.70
40828;DHT22;26549;50.918;5.338;2023-04-24T14:40:31;14.80;97.60
40828;DHT22;26549;50.918;5.338;2023-04-24T14:42:58;14.80;97.80
40828;DHT22;26549;50.918;5.338;2023-04-24T14:45:27;14.90;97.40
40828;DHT22;26549;50.918;5.338;2023-04-24T14:47:53;14.80;97.40
40828;DHT22;26549;50.918;5.338;2023-04-24T14:50:19;14.90;97.50
40828;DHT22;26549;50.918;5.338;2023-04-24T14:52:55;14.90;97.20
40828;DHT22;26549;50.918;5.338;2023-04-24T14:55:25;15.00;96.90
40828;DHT22;26549;50.918;5.338;2023-04-24T14:57:51;15.00;96.90
40828;DHT22;26549;50.918;5.338;2023-04-24T15:00:18;14.90;97.10
40828;DHT22;26549;50.918;5.338;2023-04-24T15:02:45;15.10;96.80
40828;DHT22;26549;50.918;5.338;2023-04-24T15:05:11;15.10;97.40
40828;DHT22;26549;50.918;5.338;2023-04-24T15:07:38;15.30;97.10
40828;DHT22;26549;50.918;5.338;2023-04-24T15:10:04;15.20;96.60
40828;DHT22;26549;50.918;5.338;2023-04-24T15:12:30;15.00;96.90
40828;DHT22;26549;50.918;5.338;2023-04-24T15:14:58;15.00;97.20
40828;DHT22;26549;50.918;5.338;2023-04-24T15:17:26;15.10;96.90
40828;DHT22;26549;50.918;5.338;2023-04-24T15:19:53;14.90;96.90
40828;DHT22;26549;50.918;5.338;2023-04-24T15:22:22;14.60;97.50
40828;DHT22;26549;50.918;5.338;2023-04-24T15:24:54;14.70;97.20
40828;DHT22;26549;50.918;5.338;2023-04-24T15:27:20;14.80;96.80
40828;DHT22;26549;50.918;5.338;2023-04-24T15:29:45;14.80;96.50
40828;DHT22;26549;50.918;5.338;2023-04-24T15:32:11;14.80;96.90
40828;DHT22;26549;50.918;5.338;2023-04-24T15:34:38;14.80;96.90
40828;DHT22;26549;50.918;5.338;2023-04-24T15:37:06;15.00;96.60
40828;DHT22;26549;50.918;5.338;2023-04-24T15:39:33;15.00;96.40
40828;DHT22;26549;50.918;5.338;2023-04-24T15:41:59;14.90;95.70
40828;DHT22;26549;50.918;5.338;2023-04-24T15:44:27;14.90;95.70
40828;DHT22;26549;50.918;5.338;2023-04-24T15:47:05;14.70;96.10
40828;DHT22;26549;50.918;5.338;2023-04-24T15:49:40;14.70;95.80
40828;DHT22;26549;50.918;5.338;2023-04-24T15:52:06;14.60;96.50
40828;DHT22;26549;50.918;5.338;2023-04-24T15:54:40;14.10;96.80
40828;DHT22;26549;50.918;5.338;2023-04-24T15:57:07;14.20;96.90
40828;DHT22;26549;50.918;5.338;2023-04-24T15:59:33;14.20;97.30